createdAt,value
2022-12-11T00:06:16.626Z,87.68
2022-12-11T00:08:44.211Z,88.00
2022-12-11T00:11:16.341Z,89.46
2022-12-11T00:13:43.682Z,90.14
2022-12-11T00:16:11.261Z,89.26
2022-12-11T00:18:38.877Z,90.00
2022-12-11T00:21:11.218Z,90.40
2022-12-11T00:23:38.420Z,89.21
2022-12-11T00:26:07.315Z,90.29
2022-12-11T00:28:34.470Z,89.41
2022-12-11T00:31:06.182Z,89.05
2022-12-11T00:33:33.259Z,91.10
2022-12-11T00:36:00.342Z,91.28
2022-12-11T00:38:27.721Z,90.08
2022-12-11T00:40:58.895Z,89.76
2022-12-11T00:43:25.777Z,90.16
2022-12-11T00:45:52.800Z,86.03
2022-12-11T00:48:19.912Z,87.69
2022-12-11T00:50:46.992Z,88.81
2022-12-11T00:53:14.108Z,87.92
2022-12-11T00:55:43.045Z,88.12
2022-12-11T00:58:11.690Z,86.90
2022-12-11T01:00:40.019Z,87.25
2022-12-11T01:03:07.256Z,86.59
2022-12-11T01:05:40.260Z,84.70
2022-12-11T01:08:07.557Z,85.08
2022-12-11T01:10:35.069Z,85.46
2022-12-11T01:20:11.120Z,83.37
2022-12-11T01:22:38.046Z,85.03
2022-12-11T01:25:05.278Z,84.91
2022-12-11T01:27:32.290Z,83.86
2022-12-11T01:29:59.244Z,83.99
2022-12-11T01:32:28.148Z,86.03
2022-12-11T01:34:55.251Z,84.32
2022-12-11T01:37:22.254Z,84.45
2022-12-11T01:39:49.296Z,84.98
2022-12-11T01:42:19.177Z,85.32
2022-12-11T01:44:46.238Z,83.48
2022-12-11T01:47:13.167Z,83.03
2022-12-11T01:49:41.700Z,83.53
2022-12-11T01:52:15.556Z,84.30
2022-12-11T01:54:43.859Z,84.74
2022-12-11T01:57:12.688Z,85.35
2022-12-11T01:59:43.308Z,85.24
2022-12-11T02:02:21.101Z,83.92
2022-12-11T02:04:49.052Z,84.68
2022-12-11T02:07:16.350Z,83.50
2022-12-11T02:09:46.215Z,85.32
2022-12-11T02:12:28.261Z,83.44
2022-12-11T02:15:16.451Z,83.72
2022-12-11T02:18:05.245Z,83.97
2022-12-11T02:20:46.986Z,82.23
2022-12-11T02:23:32.610Z,83.23
2022-12-11T02:26:44.520Z,84.21
2022-12-11T02:29:39.727Z,82.99
2022-12-11T02:32:13.892Z,83.74
2022-12-11T02:34:47.616Z,83.11
2022-12-11T02:37:23.606Z,84.08
2022-12-11T02:39:54.166Z,83.76
2022-12-11T02:42:22.123Z,83.05
2022-12-11T02:44:51.320Z,84.49
2022-12-11T02:47:21.298Z,84.51
2022-12-11T02:49:50.831Z,83.37
2022-12-11T02:52:21.828Z,80.86
2022-12-11T02:54:52.613Z,82.42
2022-12-11T02:57:30.274Z,82.40
2022-12-11T02:59:57.175Z,82.42
2022-12-11T03:02:24.255Z,82.38
2022-12-11T03:04:51.771Z,82.44
2022-12-11T03:07:23.635Z,82.91
2022-12-11T03:09:51.094Z,81.59
2022-12-11T03:12:30.236Z,80.33
2022-12-11T03:15:00.867Z,81.52
2022-12-11T03:17:49.400Z,81.51
2022-12-11T03:20:41.310Z,80.54
2022-12-11T03:23:24.298Z,79.28
2022-12-11T03:25:57.800Z,80.16
2022-12-11T03:28:49.726Z,80.96
2022-12-11T03:31:43.378Z,81.12
2022-12-11T03:34:38.762Z,79.93
2022-12-11T03:37:07.732Z,79.79
2022-12-11T03:39:41.166Z,79.78
2022-12-11T03:42:12.101Z,78.94
2022-12-11T03:44:39.612Z,77.87
2022-12-11T03:47:09.790Z,80.08
2022-12-11T03:49:43.711Z,78.82
2022-12-11T03:52:14.848Z,78.57
2022-12-11T03:54:46.408Z,80.44
2022-12-11T03:57:18.273Z,80.80
2022-12-11T03:59:45.503Z,80.51
2022-12-11T04:02:12.435Z,80.42
2022-12-11T04:04:41.099Z,81.35
2022-12-11T04:07:08.436Z,79.88
2022-12-11T04:09:35.528Z,81.87
2022-12-11T04:12:02.488Z,80.24
2022-12-11T04:14:47.955Z,81.58
2022-12-11T04:17:34.820Z,81.00
2022-12-11T04:20:20.155Z,81.26
2022-12-11T04:23:05.765Z,81.82
2022-12-11T04:25:32.696Z,81.62
2022-12-11T04:27:59.688Z,82.26
2022-12-11T04:30:33.797Z,83.09
2022-12-11T04:33:01.415Z,82.57
2022-12-11T04:35:28.592Z,82.26
2022-12-11T04:45:20.395Z,76.96
2022-12-11T04:47:47.468Z,78.66
2022-12-11T04:50:15.660Z,78.41
2022-12-11T04:52:43.195Z,78.09
2022-12-11T04:55:11.226Z,79.61
2022-12-11T04:57:38.775Z,79.19
2022-12-11T05:00:11.371Z,79.84
2022-12-11T05:02:39.717Z,79.68
2022-12-11T05:05:09.927Z,79.50
2022-12-11T05:07:37.920Z,79.91
2022-12-11T05:10:06.014Z,81.05
2022-12-11T05:12:33.505Z,81.95
2022-12-11T05:15:00.505Z,81.63
2022-12-11T05:17:27.602Z,82.09
2022-12-11T05:19:54.589Z,82.69
2022-12-11T05:22:21.499Z,80.11
2022-12-11T05:24:48.398Z,80.72
2022-12-11T05:27:15.462Z,79.93
2022-12-11T05:29:42.411Z,80.01
2022-12-11T05:32:09.371Z,79.22
2022-12-11T05:34:36.337Z,79.02
2022-12-11T05:37:03.530Z,78.63
2022-12-11T05:39:30.471Z,79.61
2022-12-11T05:41:57.379Z,79.15
2022-12-11T05:44:24.610Z,79.48
2022-12-11T05:46:51.703Z,80.05
2022-12-11T05:49:20.133Z,78.81
2022-12-11T05:51:47.468Z,79.21
2022-12-11T05:54:14.927Z,78.65
2022-12-11T05:56:42.009Z,79.13
2022-12-11T05:59:10.087Z,78.44
2022-12-11T06:01:40.904Z,78.44
2022-12-11T06:04:09.842Z,78.91
2022-12-11T06:06:37.609Z,79.60
2022-12-11T06:09:05.870Z,77.94
2022-12-11T06:11:34.320Z,77.73
2022-12-11T06:14:03.290Z,78.51
2022-12-11T06:16:30.804Z,77.21
2022-12-11T06:18:58.743Z,78.26
2022-12-11T06:21:28.886Z,77.47
2022-12-11T06:23:57.952Z,78.39
2022-12-11T06:26:26.053Z,77.97
2022-12-11T06:28:53.475Z,76.35
2022-12-11T06:31:20.865Z,76.63
2022-12-11T06:33:48.373Z,76.30
2022-12-11T06:36:18.626Z,76.92
2022-12-11T06:38:46.017Z,76.49
2022-12-11T06:41:13.143Z,76.85
2022-12-11T06:43:41.315Z,77.01
2022-12-11T06:46:10.312Z,75.94
2022-12-11T06:48:37.317Z,76.22
2022-12-11T06:51:09.680Z,76.46
2022-12-11T06:53:37.003Z,76.44
2022-12-11T06:56:06.198Z,76.01
2022-12-11T06:58:35.764Z,76.39
2022-12-11T07:01:04.161Z,76.49
2022-12-11T07:03:31.151Z,75.36
2022-12-11T07:06:04.743Z,75.76
2022-12-11T07:08:32.168Z,75.37
2022-12-11T07:11:07.524Z,75.42
2022-12-11T07:13:34.767Z,75.17
2022-12-11T07:16:04.613Z,74.55
2022-12-11T07:18:32.830Z,75.96
2022-12-11T07:21:02.789Z,75.34
2022-12-11T07:23:29.990Z,74.04
2022-12-11T07:25:58.082Z,74.99
2022-12-11T07:28:26.190Z,75.12
2022-12-11T07:30:53.191Z,75.33
2022-12-11T07:33:20.100Z,75.05
2022-12-11T07:35:47.120Z,75.73
2022-12-11T07:38:14.373Z,75.56
2022-12-11T07:40:41.378Z,76.32
2022-12-11T07:43:08.393Z,74.96
2022-12-11T07:45:35.381Z,74.05
2022-12-11T07:48:02.468Z,74.78
2022-12-11T07:50:29.580Z,74.50
2022-12-11T07:52:56.563Z,74.59
2022-12-11T07:55:23.457Z,74.69
2022-12-11T07:57:50.420Z,74.63
2022-12-11T08:00:17.727Z,74.80
2022-12-11T08:02:44.805Z,75.08
2022-12-11T08:05:13.254Z,74.91
2022-12-11T08:07:40.415Z,75.21
2022-12-11T08:10:07.535Z,73.89
2022-12-11T08:12:34.466Z,74.68
2022-12-11T08:15:01.464Z,74.08
2022-12-11T08:17:30.965Z,74.47
2022-12-11T08:19:59.856Z,74.99
2022-12-11T08:22:26.870Z,74.63
2022-12-11T08:24:53.881Z,75.62
2022-12-11T08:27:20.877Z,75.08
2022-12-11T08:44:30.561Z,72.83
2022-12-11T08:46:57.447Z,71.90
2022-12-11T08:49:25.252Z,72.13
2022-12-11T08:51:53.553Z,72.03
2022-12-11T08:54:20.452Z,71.81
2022-12-11T08:56:54.818Z,72.51
2022-12-11T08:59:25.771Z,74.53
2022-12-11T09:01:52.962Z,70.74
2022-12-11T09:04:20.114Z,72.80
2022-12-11T09:06:47.129Z,71.36
2022-12-11T09:09:15.073Z,72.58
2022-12-11T09:11:42.712Z,72.59
2022-12-11T09:14:09.661Z,72.41
2022-12-11T09:16:40.709Z,71.95
2022-12-11T09:19:11.663Z,72.82
2022-12-11T09:21:38.750Z,74.49
2022-12-11T09:24:06.034Z,73.09
2022-12-11T09:26:32.910Z,74.42
2022-12-11T09:28:59.839Z,73.02
2022-12-11T09:31:29.679Z,71.14
2022-12-11T09:34:02.400Z,70.42
2022-12-11T09:36:30.125Z,71.04
2022-12-11T09:39:00.965Z,69.92
2022-12-11T09:41:48.516Z,71.29
2022-12-11T09:44:46.494Z,69.79
2022-12-11T09:47:32.024Z,69.50
2022-12-11T09:50:24.147Z,70.29
2022-12-11T09:52:57.228Z,70.17
2022-12-11T10:14:22.457Z,74.31
2022-12-11T10:16:52.754Z,72.43
2022-12-11T10:19:27.875Z,72.33
2022-12-11T10:21:55.800Z,73.16
2022-12-11T10:25:07.497Z,70.18
2022-12-11T10:27:23.094Z,70.01
2022-12-11T10:30:02.392Z,72.40
2022-12-11T10:32:44.361Z,72.12
2022-12-11T10:35:20.365Z,72.68
2022-12-11T10:37:47.258Z,69.47
2022-12-11T10:40:14.792Z,69.48
2022-12-11T10:42:55.886Z,68.22
2022-12-11T10:45:22.990Z,69.89
2022-12-11T10:47:49.904Z,69.75
2022-12-11T10:50:26.294Z,69.62
2022-12-11T10:52:53.623Z,68.26
2022-12-11T10:55:28.992Z,69.11
2022-12-11T10:58:06.772Z,68.59
2022-12-11T11:00:36.288Z,66.80
2022-12-11T11:03:06.694Z,66.17
2022-12-11T11:05:36.686Z,68.90
2022-12-11T11:08:04.952Z,68.69
2022-12-11T11:10:31.961Z,70.76
2022-12-11T11:13:02.340Z,70.37
2022-12-11T11:15:30.995Z,69.95
2022-12-11T11:18:09.894Z,68.64
2022-12-11T11:20:37.146Z,67.80
2022-12-11T11:23:14.227Z,68.45
2022-12-11T11:25:50.726Z,70.89
2022-12-11T11:28:25.996Z,71.33
2022-12-11T11:30:58.323Z,69.44
2022-12-11T11:33:25.872Z,71.52
2022-12-11T11:35:56.615Z,70.65
2022-12-11T11:38:46.631Z,71.23
2022-12-11T11:41:19.972Z,75.16
2022-12-11T11:43:49.118Z,73.91
2022-12-11T11:46:31.016Z,68.73
2022-12-11T11:49:13.107Z,70.42
2022-12-11T11:52:08.643Z,71.58
2022-12-11T11:54:43.217Z,70.46
2022-12-11T11:57:28.797Z,73.95
2022-12-11T12:00:09.959Z,75.46
2022-12-11T12:02:41.550Z,77.71
2022-12-11T12:05:15.897Z,75.42
2022-12-11T12:07:59.170Z,75.73
2022-12-11T12:10:47.506Z,76.03
2022-12-11T12:16:53.992Z,75.71
2022-12-11T12:19:36.642Z,75.59
2022-12-11T12:22:24.093Z,75.73
2022-12-11T12:25:28.913Z,73.71
2022-12-11T12:28:26.721Z,79.89
2022-12-11T12:31:24.405Z,77.33
2022-12-11T12:34:06.840Z,72.95
2022-12-11T12:37:04.986Z,69.44
2022-12-11T12:39:54.890Z,72.26
2022-12-11T12:42:43.024Z,75.40
2022-12-11T12:45:13.188Z,74.08
2022-12-11T12:47:42.652Z,72.69
2022-12-11T12:50:17.319Z,73.64
2022-12-11T12:52:44.995Z,73.28
2022-12-11T12:55:27.383Z,72.91
2022-12-11T12:58:00.666Z,73.08
2022-12-11T13:00:38.034Z,73.14
2022-12-11T13:03:22.863Z,73.12
2022-12-11T13:05:55.597Z,74.49
2022-12-11T13:08:41.134Z,76.37
2022-12-11T13:11:12.264Z,78.49
2022-12-11T13:13:42.793Z,74.63
2022-12-11T13:16:26.861Z,73.51
2022-12-11T13:18:54.062Z,74.55
2022-12-11T13:21:34.169Z,74.07
2022-12-11T13:24:13.177Z,74.39
2022-12-11T13:26:41.171Z,75.53
2022-12-11T13:29:40.873Z,72.28
2022-12-11T13:32:10.842Z,70.71
2022-12-11T13:34:41.205Z,71.81
2022-12-11T13:37:22.188Z,71.32
2022-12-11T13:39:49.210Z,72.66
2022-12-11T13:42:28.542Z,70.51
2022-12-11T13:44:55.747Z,72.47
2022-12-11T13:47:23.462Z,72.07
2022-12-11T13:49:55.606Z,73.47
2022-12-11T13:52:27.745Z,75.96
2022-12-11T13:54:59.606Z,75.74
2022-12-11T13:57:30.921Z,78.97
2022-12-11T13:59:59.576Z,79.63
2022-12-11T14:02:35.657Z,78.55
2022-12-11T14:05:07.078Z,78.25
2022-12-11T14:07:37.152Z,78.61
2022-12-11T14:10:09.855Z,80.06
2022-12-11T14:12:37.591Z,80.01
2022-12-11T14:15:05.559Z,75.22
2022-12-11T14:17:35.418Z,76.99
2022-12-11T14:20:08.754Z,75.11
2022-12-11T14:22:36.043Z,73.06
2022-12-11T14:25:23.114Z,73.10
2022-12-11T14:27:52.501Z,73.41
2022-12-11T14:30:28.108Z,73.90
2022-12-11T14:32:59.178Z,74.93
2022-12-11T14:35:28.541Z,73.84
2022-12-11T14:37:57.138Z,74.50
2022-12-11T14:40:35.929Z,75.84
2022-12-11T14:43:09.917Z,76.72
2022-12-11T14:45:45.296Z,75.42
2022-12-11T14:48:26.338Z,74.72
2022-12-11T14:50:55.726Z,74.34
2022-12-11T14:53:30.069Z,70.79
2022-12-11T14:56:01.732Z,71.62
2022-12-11T14:58:29.570Z,71.55
2022-12-11T15:01:06.121Z,72.59
2022-12-11T15:03:36.245Z,73.10
2022-12-11T15:06:22.838Z,72.95
2022-12-11T15:08:49.777Z,73.52
2022-12-11T15:11:18.926Z,73.21
2022-12-11T15:13:58.431Z,73.01
2022-12-11T15:16:27.952Z,72.41
2022-12-11T15:18:56.308Z,72.87
2022-12-11T15:21:32.250Z,70.49
2022-12-11T15:24:02.264Z,70.47
2022-12-11T15:26:40.034Z,70.78
2022-12-11T15:29:23.571Z,70.24
2022-12-11T15:32:09.480Z,72.29
2022-12-11T15:34:54.149Z,72.71
2022-12-11T15:37:33.289Z,71.75
2022-12-11T15:40:02.001Z,71.53
2022-12-11T15:42:39.875Z,71.51
2022-12-11T15:45:10.185Z,72.54
2022-12-11T15:47:37.372Z,72.25
2022-12-11T15:50:23.219Z,72.69
2022-12-11T15:52:52.328Z,71.55
2022-12-11T15:55:20.449Z,72.72
2022-12-11T15:57:57.376Z,71.27
2022-12-11T16:00:24.713Z,71.76
2022-12-11T16:02:52.248Z,71.90
2022-12-11T16:05:20.550Z,71.94
2022-12-11T16:07:49.160Z,72.18
2022-12-11T16:10:18.835Z,73.13
2022-12-11T16:12:46.421Z,71.91
2022-12-11T16:15:21.396Z,71.26
2022-12-11T16:17:50.376Z,72.56
2022-12-11T16:20:17.812Z,74.48
2022-12-11T16:22:44.844Z,73.82
2022-12-11T16:25:11.958Z,73.65
2022-12-11T16:27:39.200Z,73.58
2022-12-11T16:30:06.879Z,75.08
2022-12-11T16:32:33.982Z,75.11
2022-12-11T16:35:01.325Z,76.01
2022-12-11T16:37:28.311Z,76.08
2022-12-11T16:39:55.366Z,75.92
2022-12-11T16:42:22.426Z,73.96
2022-12-11T16:44:49.452Z,73.98
2022-12-11T16:47:16.417Z,74.89
2022-12-11T16:49:43.533Z,74.37
2022-12-11T16:52:10.881Z,74.32
2022-12-11T16:54:37.826Z,74.11
2022-12-11T16:57:04.862Z,75.18
2022-12-11T16:59:36.814Z,75.27
2022-12-11T17:02:04.948Z,75.94
2022-12-11T17:04:31.803Z,75.37
2022-12-11T17:06:58.881Z,74.90
2022-12-11T17:09:25.862Z,75.54
2022-12-11T17:11:53.603Z,75.35
2022-12-11T17:14:20.618Z,75.18
2022-12-11T17:16:48.299Z,76.26
2022-12-11T17:19:16.763Z,77.34
2022-12-11T17:21:48.406Z,77.12
2022-12-11T17:24:18.156Z,77.24
2022-12-11T17:26:45.030Z,77.62
2022-12-11T17:29:12.897Z,78.10
2022-12-11T17:31:40.635Z,77.76
2022-12-11T17:34:07.817Z,77.47
2022-12-11T17:36:34.998Z,77.23
2022-12-11T17:39:04.148Z,77.10
2022-12-11T17:41:31.229Z,77.30
2022-12-11T17:43:58.193Z,77.55
2022-12-11T17:46:25.313Z,77.29
2022-12-11T17:48:52.357Z,77.93
2022-12-11T17:51:24.586Z,77.95
2022-12-11T17:53:55.466Z,77.70
2022-12-11T17:56:24.107Z,77.53
2022-12-11T17:58:51.460Z,77.42
2022-12-11T18:01:18.917Z,76.56
2022-12-11T18:03:47.095Z,75.93
2022-12-11T18:06:16.511Z,77.75
2022-12-11T18:08:45.814Z,77.02
2022-12-11T18:11:17.894Z,76.43
2022-12-11T18:13:45.661Z,76.05
2022-12-11T18:16:19.185Z,75.82
2022-12-11T18:18:47.939Z,75.85
2022-12-11T18:21:21.942Z,75.10
2022-12-11T18:23:52.902Z,75.17
2022-12-11T18:26:20.908Z,74.39
2022-12-11T18:28:49.255Z,74.17
2022-12-11T18:31:16.553Z,75.14
2022-12-11T18:33:44.994Z,75.19
2022-12-11T18:36:14.200Z,74.52
2022-12-11T18:38:42.505Z,74.63
2022-12-11T18:41:11.333Z,73.61
2022-12-11T18:43:40.855Z,75.07
2022-12-11T18:46:10.317Z,72.76
2022-12-11T18:48:38.186Z,73.13
2022-12-11T18:51:10.333Z,72.73
2022-12-11T18:53:39.397Z,72.89
2022-12-11T18:56:15.549Z,73.00
2022-12-11T18:58:43.386Z,72.27
2022-12-11T19:01:15.287Z,72.54
2022-12-11T19:03:44.157Z,73.73
2022-12-11T19:06:20.419Z,72.52
2022-12-11T19:08:47.610Z,72.89
2022-12-11T19:11:17.276Z,72.79
2022-12-11T19:13:44.911Z,72.70
2022-12-11T19:16:33.820Z,72.77
2022-12-11T19:19:06.506Z,72.67
2022-12-11T19:21:35.568Z,72.32
2022-12-11T19:24:02.601Z,72.92
2022-12-11T19:26:30.064Z,72.50
2022-12-11T19:29:00.270Z,71.93
2022-12-11T19:31:30.246Z,72.29
2022-12-11T19:33:58.283Z,72.00
2022-12-11T19:36:27.111Z,72.11
2022-12-11T19:38:59.467Z,71.41
2022-12-11T19:41:30.099Z,71.94
2022-12-11T19:43:59.047Z,71.50
2022-12-11T19:46:27.346Z,71.13
2022-12-11T19:48:57.241Z,71.11
2022-12-11T19:51:30.138Z,71.16
2022-12-11T19:53:58.868Z,70.25
2022-12-11T19:56:26.272Z,69.96
2022-12-11T19:58:53.632Z,69.47
2022-12-11T20:01:28.517Z,68.99
2022-12-11T20:03:58.130Z,69.69
2022-12-11T20:06:28.122Z,70.16
2022-12-11T20:08:55.400Z,69.08
2022-12-11T20:11:22.529Z,68.87
2022-12-11T20:13:50.630Z,68.94
2022-12-11T20:16:28.865Z,69.16
2022-12-11T20:19:08.480Z,69.34
2022-12-11T20:21:35.396Z,68.46
2022-12-11T20:24:02.333Z,68.60
2022-12-11T20:26:31.192Z,68.26
2022-12-11T20:28:58.374Z,68.08
2022-12-11T20:31:26.268Z,68.52
2022-12-11T20:33:56.046Z,68.88
2022-12-11T20:36:24.306Z,68.58
2022-12-11T20:38:52.304Z,68.70
2022-12-11T20:41:21.619Z,69.79
2022-12-11T20:43:54.124Z,69.30
2022-12-11T20:46:25.260Z,70.58
2022-12-11T20:48:53.501Z,69.71
2022-12-11T20:51:25.792Z,70.15
2022-12-11T20:54:01.380Z,69.54
2022-12-11T20:56:33.246Z,70.33
2022-12-11T20:59:01.087Z,69.87
2022-12-11T21:01:32.218Z,69.92
2022-12-11T21:03:59.854Z,70.50
2022-12-11T21:06:35.528Z,70.20
2022-12-11T21:09:06.707Z,69.20
2022-12-11T21:11:34.141Z,69.56
2022-12-11T21:14:01.192Z,70.71
2022-12-11T21:16:29.002Z,70.34
2022-12-11T21:18:57.653Z,70.28
2022-12-11T21:21:25.930Z,68.97
2022-12-11T21:23:52.899Z,68.92
2022-12-11T21:26:20.608Z,68.40
2022-12-11T21:28:47.620Z,67.88
2022-12-11T21:31:17.798Z,68.12
2022-12-11T21:33:46.215Z,68.72
2022-12-11T21:36:14.825Z,68.48
2022-12-11T21:38:43.788Z,68.43
2022-12-11T21:41:16.444Z,69.01
2022-12-11T21:46:33.040Z,68.16
2022-12-11T21:49:00.455Z,68.28
2022-12-11T21:51:36.193Z,68.58
2022-12-11T21:54:06.756Z,68.72
2022-12-11T21:56:34.298Z,68.98
2022-12-11T21:59:04.251Z,68.65
2022-12-11T22:01:35.218Z,68.94
2022-12-11T22:04:03.121Z,68.72
2022-12-11T22:06:30.042Z,69.17
2022-12-11T22:08:57.023Z,69.14
2022-12-11T22:11:27.936Z,68.98
2022-12-11T22:13:55.375Z,68.66
2022-12-11T22:16:22.786Z,69.36
2022-12-11T22:18:49.798Z,68.38
2022-12-11T22:21:17.489Z,69.07
2022-12-11T22:23:44.795Z,68.86
2022-12-11T22:26:16.618Z,68.54
2022-12-11T22:28:43.674Z,68.73
2022-12-11T22:31:16.849Z,69.21
2022-12-11T22:33:43.984Z,69.01
2022-12-11T22:36:11.517Z,68.84
2022-12-11T22:38:39.570Z,69.08
2022-12-11T22:41:30.521Z,68.18
2022-12-11T22:43:58.450Z,69.13
2022-12-11T22:46:29.233Z,68.44
2022-12-11T22:48:57.273Z,68.11
2022-12-11T22:51:24.214Z,68.29
2022-12-11T22:53:51.266Z,67.19
2022-12-11T22:56:18.372Z,66.47
2022-12-11T22:58:45.419Z,67.07
2022-12-11T23:01:18.271Z,66.39
2022-12-11T23:03:45.701Z,66.30
2022-12-11T23:06:15.225Z,67.27
2022-12-11T23:08:42.438Z,67.37
2022-12-11T23:11:24.939Z,67.31
2022-12-11T23:13:52.777Z,67.65
2022-12-11T23:16:20.138Z,66.61
2022-12-11T23:18:47.160Z,67.23
2022-12-11T23:21:14.530Z,66.86
2022-12-11T23:23:42.975Z,67.16
2022-12-11T23:26:12.733Z,67.19
2022-12-11T23:28:40.296Z,67.75
2022-12-11T23:31:08.312Z,68.34
2022-12-11T23:33:35.569Z,67.03
2022-12-11T23:36:03.050Z,67.30
2022-12-11T23:38:30.505Z,66.78
2022-12-11T23:41:00.484Z,67.16
2022-12-11T23:43:27.898Z,67.35
2022-12-11T23:45:54.936Z,67.02
2022-12-11T23:48:22.074Z,67.19
2022-12-11T23:50:49.105Z,67.05
2022-12-11T23:53:16.049Z,66.71
2022-12-11T23:55:44.777Z,67.65
2022-12-11T23:58:12.016Z,65.48
